Main page
METAR-TAF:

METAR-TAF

Airports :

Leuchars Station

Leuchars, Scotland

latitude: 56-23N, longitude: 002-52W, elevation: 12 m

Current weather observation

The report was made 49 minutes ago, at 02:50 UTC
Wind 7 kt from the West
Temperature 6°C
Humidity 81%
Pressure 1015 hPa
Visibility 10 km or more

METAR: EGQL 230250Z AUTO 28007KT 9999 BKN060/// 06/03 Q1015

Time: 04:39 (03:39 UTC)

Forecast

The report was made 2 hours and 0 minutes ago, at 01:39 UTC
Forecast valid from 23 at 03 UTC to 23 at 12 UTC
Wind 6 kt from the West
Visibility 10 km or more
no clouds below 1500 m and no cumulonimbus
Probability 30% :
Temporary
from 23 at 10 UTC to 23 at 12 UTC
Visibility: 7000 m
Scattered clouds at a height of 2000 ft
rain showers

TAF: EGQL 230139Z 2303/2312 27006KT CAVOK PROB30 TEMPO 2310/2312 7000 SHRA SCT020

Weather observations and forecasts of more than 4000 airports (METAR and TAF reports).

The available stations are represented by yellow and red dots on the map.

Hover mouse over dot to see the name of the station.

Then click to see weather observations and forecasts.

To change the map : click on the green buttons with a black cross to zoom in, on the green button with a dash to zoom out, or on the green arrows for adjacent maps.


METAR-TAF: